Time;durP1;ratioP1;P1;durP2;ratioP2;P2;SDS_P1;SDS_P2;PMS_P1;PMS_P2;Temp;Humidity;BMP_temperature;BMP_pressure;BME280_temperature;BME280_humidity;BME280_pressure;Samples;Min_cycle;Max_cycle;Signal;HPM_P1;HPM_P2
2023/12/28 00:00:17;;;;;;;6.23;4.60;;;5.00;99.90;;;;;;4910609;29;20274;-61
2023/12/28 00:02:43;;;;;;;6.10;4.37;;;5.00;99.90;;;;;;4913643;29;20183;-62
2023/12/28 00:05:08;;;;;;;6.10;4.80;;;5.00;99.90;;;;;;4916109;29;20774;-62
2023/12/28 00:07:35;;;;;;;5.80;4.47;;;5.10;99.90;;;;;;4914916;29;20191;-62
2023/12/28 00:10:02;;;;;;;4.43;3.97;;;5.00;99.90;;;;;;4916020;29;20523;-62
2023/12/28 00:12:27;;;;;;;4.20;3.80;;;5.10;99.90;;;;;;4916144;29;21851;-62
2023/12/28 00:14:53;;;;;;;6.97;4.00;;;5.10;99.90;;;;;;4916161;29;20883;-61
2023/12/28 00:17:19;;;;;;;6.20;4.17;;;5.00;99.90;;;;;;4909895;29;20652;-62
2023/12/28 00:19:44;;;;;;;5.70;3.70;;;5.10;99.90;;;;;;4911462;29;20327;-62
2023/12/28 00:22:10;;;;;;;11.83;4.57;;;5.10;99.90;;;;;;4903268;29;20667;-62
2023/12/28 00:24:35;;;;;;;11.80;3.87;;;5.10;99.90;;;;;;4912718;29;20201;-61
2023/12/28 00:27:01;;;;;;;4.53;3.77;;;5.10;99.90;;;;;;4920842;29;20176;-62
2023/12/28 00:29:28;;;;;;;6.53;4.00;;;5.10;99.90;;;;;;4914258;29;20192;-62
2023/12/28 00:31:54;;;;;;;6.10;4.20;;;5.10;99.90;;;;;;4915934;29;20206;-62
2023/12/28 00:34:19;;;;;;;5.47;3.47;;;5.10;99.90;;;;;;4914851;29;20790;-62
2023/12/28 00:36:45;;;;;;;3.97;3.57;;;5.10;99.90;;;;;;4901898;29;20176;-62
2023/12/28 00:39:10;;;;;;;5.27;3.80;;;5.20;99.90;;;;;;4903664;29;20234;-62
2023/12/28 00:41:36;;;;;;;4.60;3.43;;;5.10;99.90;;;;;;4915686;29;20176;-62
2023/12/28 00:44:02;;;;;;;5.17;3.57;;;5.10;99.90;;;;;;4920750;29;20250;-62
2023/12/28 00:46:28;;;;;;;6.23;3.80;;;5.10;99.90;;;;;;4907866;29;20176;-62
2023/12/28 00:48:54;;;;;;;6.30;3.60;;;5.10;99.90;;;;;;4916749;29;20204;-61
2023/12/28 00:51:20;;;;;;;6.70;4.47;;;5.10;99.90;;;;;;4911725;29;20436;-62
2023/12/28 00:53:46;;;;;;;7.80;4.87;;;5.10;99.90;;;;;;4909416;29;20667;-62
2023/12/28 00:56:11;;;;;;;7.80;4.23;;;5.10;99.90;;;;;;4923149;29;20477;-62
2023/12/28 00:58:40;;;;;;;6.70;4.50;;;5.10;99.90;;;;;;4915391;29;20222;-62
2023/12/28 01:01:06;;;;;;;7.10;3.50;;;5.10;99.90;;;;;;4907565;29;20749;-61
2023/12/28 01:03:31;;;;;;;4.47;4.00;;;5.10;99.90;;;;;;4921605;29;20515;-62
2023/12/28 01:05:57;;;;;;;10.20;4.30;;;5.10;99.90;;;;;;4916961;29;20269;-62
2023/12/28 01:08:22;;;;;;;4.87;3.83;;;5.10;99.90;;;;;;4919496;29;20222;-62
2023/12/28 01:10:48;;;;;;;9.87;4.53;;;5.00;99.90;;;;;;4914657;29;20187;-62
2023/12/28 01:13:14;;;;;;;5.30;4.80;;;5.00;99.90;;;;;;4916990;29;20203;-62
2023/12/28 01:15:39;;;;;;;5.90;3.27;;;5.00;99.90;;;;;;4914838;29;20212;-62
2023/12/28 01:18:05;;;;;;;4.67;4.27;;;5.00;99.90;;;;;;4916772;29;20570;-62
2023/12/28 01:20:30;;;;;;;5.77;3.33;;;5.00;99.90;;;;;;4910694;29;20218;-60
2023/12/28 01:22:56;;;;;;;5.93;3.77;;;5.00;99.90;;;;;;4906957;29;20571;-60
2023/12/28 01:25:22;;;;;;;4.10;3.70;;;4.90;99.90;;;;;;4911058;29;20258;-62
2023/12/28 01:27:47;;;;;;;9.10;3.20;;;4.90;99.90;;;;;;4907313;29;20235;-61
2023/12/28 01:30:13;;;;;;;9.37;4.77;;;5.00;99.90;;;;;;4913618;29;20200;-61
2023/12/28 01:32:38;;;;;;;3.67;3.30;;;5.00;99.90;;;;;;4914854;29;20199;-62
2023/12/28 01:35:04;;;;;;;6.03;3.63;;;5.00;99.90;;;;;;4915141;29;20171;-62
2023/12/28 01:37:33;;;;;;;3.53;3.20;;;5.00;99.90;;;;;;4913105;29;20251;-62
2023/12/28 01:39:59;;;;;;;6.20;2.70;;;5.10;99.90;;;;;;4909992;29;20437;-62
2023/12/28 01:42:25;;;;;;;4.03;3.30;;;5.10;99.90;;;;;;4914672;29;20887;-62
2023/12/28 01:44:50;;;;;;;3.57;3.27;;;5.00;99.90;;;;;;4913973;29;20522;-62
2023/12/28 01:47:16;;;;;;;7.43;2.70;;;5.00;99.90;;;;;;4914702;29;20184;-62
2023/12/28 01:49:43;;;;;;;3.53;3.00;;;5.10;99.90;;;;;;4914939;29;20700;-62
2023/12/28 01:52:08;;;;;;;6.70;3.00;;;5.20;99.90;;;;;;4913405;29;20464;-62
2023/12/28 01:54:35;;;;;;;5.50;3.00;;;5.20;99.90;;;;;;4916934;29;20853;-62
2023/12/28 01:57:02;;;;;;;3.27;2.67;;;5.30;99.90;;;;;;4918871;29;20165;-62
2023/12/28 01:59:27;;;;;;;3.50;3.20;;;5.30;99.90;;;;;;4917021;29;20435;-62
2023/12/28 02:01:53;;;;;;;3.23;2.53;;;5.40;99.90;;;;;;4915382;29;20443;-62
2023/12/28 02:04:25;;;;;;;2.47;2.27;;;5.40;99.90;;;;;;4909200;29;20180;-62
2023/12/28 02:06:54;;;;;;;5.63;3.27;;;5.40;99.90;;;;;;4916423;29;20176;-61
2023/12/28 02:09:19;;;;;;;2.50;2.30;;;5.40;99.90;;;;;;4910763;29;20447;-62
2023/12/28 02:11:45;;;;;;;2.60;2.40;;;5.50;99.90;;;;;;4918213;29;20408;-62
2023/12/28 02:14:10;;;;;;;3.53;2.50;;;5.60;99.90;;;;;;4917184;29;20215;-62
2023/12/28 02:16:44;;;;;;;2.40;1.90;;;5.70;99.90;;;;;;4917948;29;20196;-60
2023/12/28 02:19:41;;;;;;;2.40;2.20;;;5.80;99.90;;;;;;4915971;29;20264;-60
2023/12/28 02:22:09;;;;;;;3.03;2.43;;;5.90;99.90;;;;;;4907301;29;20506;-61
2023/12/28 02:24:57;;;;;;;3.37;3.00;;;6.00;99.90;;;;;;4906759;29;20431;-61
2023/12/28 02:27:23;;;;;;;4.40;2.40;;;6.00;99.90;;;;;;4915715;29;20480;-62
2023/12/28 02:29:48;;;;;;;3.73;2.23;;;6.00;99.90;;;;;;4906685;29;20437;-62
2023/12/28 02:32:16;;;;;;;3.63;2.17;;;6.10;99.90;;;;;;4917407;29;20203;-62
2023/12/28 02:34:44;;;;;;;2.67;2.40;;;6.30;99.90;;;;;;4917948;29;20194;-62
2023/12/28 02:37:14;;;;;;;8.40;2.70;;;6.30;99.90;;;;;;4917817;29;20421;-62
2023/12/28 02:39:42;;;;;;;5.33;2.30;;;6.40;99.90;;;;;;4917632;29;20436;-62
2023/12/28 02:42:08;;;;;;;3.27;1.93;;;6.50;99.90;;;;;;4916535;29;20428;-62
2023/12/28 02:44:33;;;;;;;2.10;1.70;;;6.60;99.90;;;;;;4910260;29;20432;-61
2023/12/28 02:46:59;;;;;;;4.37;2.43;;;6.70;99.90;;;;;;4918375;29;20552;-61
2023/12/28 02:49:24;;;;;;;3.90;2.50;;;6.70;99.90;;;;;;4912069;29;20289;-61
2023/12/28 02:51:50;;;;;;;3.73;2.17;;;6.80;99.90;;;;;;4921999;29;20199;-62
2023/12/28 02:54:15;;;;;;;2.33;2.00;;;6.90;99.90;;;;;;4923428;29;20188;-62
2023/12/28 02:56:41;;;;;;;2.40;1.80;;;6.90;99.90;;;;;;4909919;29;20632;-62
2023/12/28 02:59:07;;;;;;;2.60;2.27;;;6.90;99.90;;;;;;4913504;29;20249;-62
2023/12/28 03:01:32;;;;;;;2.23;1.83;;;7.00;99.90;;;;;;4919064;29;20200;-62
2023/12/28 03:03:58;;;;;;;3.53;2.00;;;7.10;99.90;;;;;;4917958;29;20617;-62
2023/12/28 03:06:23;;;;;;;2.53;2.03;;;7.20;99.90;;;;;;4916119;29;20204;-62
2023/12/28 03:08:49;;;;;;;2.20;2.00;;;7.20;99.90;;;;;;4916116;29;20242;-62
2023/12/28 03:11:14;;;;;;;2.40;1.90;;;7.20;99.90;;;;;;4917213;29;20184;-62
2023/12/28 03:13:40;;;;;;;3.80;2.10;;;7.30;99.90;;;;;;4917059;29;20209;-62
2023/12/28 03:16:06;;;;;;;1.97;1.73;;;7.40;99.90;;;;;;4918133;29;20174;-61
2023/12/28 03:18:32;;;;;;;6.93;2.07;;;7.50;99.90;;;;;;4918322;29;20225;-62
2023/12/28 03:20:57;;;;;;;2.10;1.77;;;7.60;99.90;;;;;;4917314;29;20431;-61
2023/12/28 03:23:23;;;;;;;1.53;1.40;;;7.60;99.90;;;;;;4921048;29;20175;-61
2023/12/28 03:25:48;;;;;;;2.23;2.03;;;7.60;99.90;;;;;;4922682;29;20252;-61
2023/12/28 03:28:14;;;;;;;2.87;1.97;;;7.70;99.90;;;;;;4911509;29;20205;-62
2023/12/28 03:30:40;;;;;;;4.80;2.17;;;7.70;99.90;;;;;;4923617;29;20270;-62
2023/12/28 03:33:05;;;;;;;2.07;1.70;;;7.80;99.90;;;;;;4915810;29;20223;-59
2023/12/28 03:35:31;;;;;;;2.30;1.60;;;7.80;99.90;;;;;;4916923;29;20365;-61
2023/12/28 03:37:56;;;;;;;2.30;2.10;;;7.80;99.90;;;;;;4916731;29;20182;-62
2023/12/28 03:40:22;;;;;;;1.83;1.73;;;7.90;99.90;;;;;;4916806;29;20201;-61
2023/12/28 03:42:47;;;;;;;3.90;1.70;;;7.90;99.90;;;;;;4907618;29;20239;-62
2023/12/28 03:45:13;;;;;;;1.43;1.33;;;7.90;99.90;;;;;;4916733;29;20185;-61
2023/12/28 03:47:38;;;;;;;2.07;1.70;;;7.90;99.90;;;;;;4915483;29;20267;-60
2023/12/28 03:50:05;;;;;;;3.70;1.70;;;7.90;99.90;;;;;;4912607;29;20243;-61
2023/12/28 03:52:30;;;;;;;2.03;1.80;;;7.90;99.90;;;;;;4912880;29;20259;-61
2023/12/28 03:54:56;;;;;;;1.80;1.70;;;7.90;99.90;;;;;;4917126;29;20430;-61
2023/12/28 03:57:22;;;;;;;2.83;2.33;;;7.90;99.90;;;;;;4910796;29;20188;-59
2023/12/28 03:59:47;;;;;;;2.53;1.63;;;7.90;99.90;;;;;;4919730;29;20191;-62
2023/12/28 04:02:13;;;;;;;1.40;1.30;;;7.80;99.90;;;;;;4918942;29;20845;-61
2023/12/28 04:04:39;;;;;;;2.53;1.70;;;7.80;99.90;;;;;;4913533;29;20250;-61
2023/12/28 04:07:07;;;;;;;2.30;1.70;;;7.80;99.90;;;;;;4915982;29;20429;-62
2023/12/28 04:09:33;;;;;;;1.67;1.53;;;7.90;99.90;;;;;;4916095;29;20207;-63
2023/12/28 04:11:58;;;;;;;1.70;1.60;;;7.90;99.90;;;;;;4912195;29;20514;-62
2023/12/28 04:14:24;;;;;;;3.07;1.97;;;7.90;99.90;;;;;;4914574;29;20525;-62
2023/12/28 04:16:49;;;;;;;3.43;1.70;;;8.00;99.90;;;;;;4912696;29;20211;-62
2023/12/28 04:19:15;;;;;;;2.60;2.00;;;8.00;99.90;;;;;;4914771;29;20210;-62
2023/12/28 04:21:43;;;;;;;2.03;1.40;;;8.10;99.90;;;;;;4914562;29;20179;-62
2023/12/28 04:24:09;;;;;;;1.93;1.33;;;8.10;99.90;;;;;;4916182;29;20180;-62
2023/12/28 04:26:35;;;;;;;1.60;1.50;;;8.20;99.90;;;;;;4914758;29;20812;-62
2023/12/28 04:29:00;;;;;;;1.80;1.40;;;8.20;99.90;;;;;;4911291;29;20200;-62
2023/12/28 04:31:26;;;;;;;1.40;1.30;;;8.20;99.90;;;;;;4912875;29;20182;-62
2023/12/28 04:33:52;;;;;;;5.00;2.00;;;8.20;99.90;;;;;;4919157;29;20294;-61
2023/12/28 04:36:17;;;;;;;2.17;1.80;;;8.30;99.90;;;;;;4909107;29;20640;-62
2023/12/28 04:38:43;;;;;;;2.20;1.30;;;8.30;99.90;;;;;;4905549;29;20203;-62
2023/12/28 04:41:10;;;;;;;2.17;1.60;;;8.40;99.90;;;;;;4910844;29;20229;-62
2023/12/28 04:43:36;;;;;;;1.67;1.40;;;8.40;99.90;;;;;;4915360;29;20175;-62
2023/12/28 04:46:05;;;;;;;1.87;1.43;;;8.40;99.90;;;;;;4916613;29;20429;-62
2023/12/28 04:48:31;;;;;;;1.73;1.63;;;8.50;99.90;;;;;;4920306;29;20289;-62
2023/12/28 04:50:57;;;;;;;1.90;1.80;;;8.50;99.90;;;;;;4913968;29;20507;-62
2023/12/28 04:53:22;;;;;;;2.60;2.00;;;8.50;99.90;;;;;;4906984;29;20566;-62
2023/12/28 04:55:48;;;;;;;1.60;1.47;;;8.50;99.90;;;;;;4916934;29;20168;-62
2023/12/28 04:58:14;;;;;;;1.50;1.40;;;8.60;99.90;;;;;;4908759;29;20223;-62
2023/12/28 05:00:39;;;;;;;1.60;1.30;;;8.60;99.90;;;;;;4906545;29;20267;-62
2023/12/28 05:03:06;;;;;;;1.63;1.53;;;8.60;99.90;;;;;;4910767;29;20279;-62
2023/12/28 05:05:31;;;;;;;1.70;1.60;;;8.60;99.90;;;;;;4923504;29;20658;-62
2023/12/28 05:07:57;;;;;;;9.13;2.43;;;8.60;99.90;;;;;;4918853;29;20444;-62
2023/12/28 05:10:23;;;;;;;2.80;1.80;;;8.60;99.90;;;;;;4914069;29;20439;-62
2023/12/28 05:12:48;;;;;;;1.60;1.50;;;8.70;99.90;;;;;;4916514;29;20275;-62
2023/12/28 05:15:14;;;;;;;2.20;1.63;;;8.70;99.90;;;;;;4919265;29;20175;-62
2023/12/28 05:17:39;;;;;;;1.57;1.47;;;8.70;99.90;;;;;;4918798;29;20182;-62
2023/12/28 05:20:06;;;;;;;2.27;1.63;;;8.60;99.90;;;;;;4907179;29;20238;-62
2023/12/28 05:22:31;;;;;;;1.40;1.30;;;8.70;99.90;;;;;;4908529;29;20764;-61
2023/12/28 05:24:57;;;;;;;2.17;1.70;;;8.70;99.90;;;;;;4918798;29;20438;-62
2023/12/28 05:27:23;;;;;;;1.93;1.57;;;8.70;99.90;;;;;;4919642;29;20176;-62
2023/12/28 05:29:48;;;;;;;1.73;1.43;;;8.80;99.90;;;;;;4915729;29;20249;-62
2023/12/28 05:32:14;;;;;;;2.40;2.20;;;8.70;99.90;;;;;;4908589;29;20205;-62
2023/12/28 05:34:39;;;;;;;2.30;2.10;;;8.70;99.90;;;;;;4916826;29;20256;-62
2023/12/28 05:37:05;;;;;;;4.40;1.63;;;8.70;99.90;;;;;;4915138;29;20182;-62
2023/12/28 05:39:30;;;;;;;1.60;1.50;;;8.70;99.90;;;;;;4909688;29;20226;-62
2023/12/28 05:41:56;;;;;;;2.37;1.57;;;8.80;99.90;;;;;;4908834;29;20229;-62
2023/12/28 05:44:22;;;;;;;2.20;2.00;;;8.80;99.90;;;;;;4908164;29;20178;-62
2023/12/28 05:46:47;;;;;;;1.70;1.60;;;8.90;99.90;;;;;;4909430;29;20678;-62
2023/12/28 05:49:13;;;;;;;3.20;2.03;;;8.80;99.90;;;;;;4912109;29;20198;-62
2023/12/28 05:51:39;;;;;;;2.40;1.70;;;8.80;99.90;;;;;;4914606;29;20183;-62
2023/12/28 05:54:05;;;;;;;1.90;1.50;;;8.80;99.90;;;;;;4914912;29;20621;-62
2023/12/28 05:56:31;;;;;;;3.20;1.40;;;8.80;99.90;;;;;;4910879;29;20494;-62
2023/12/28 05:58:56;;;;;;;1.80;1.43;;;8.90;99.90;;;;;;4917442;29;20227;-62
2023/12/28 06:01:22;;;;;;;1.90;1.37;;;8.90;99.90;;;;;;4907926;29;20180;-62
2023/12/28 06:03:49;;;;;;;3.90;1.30;;;8.80;99.90;;;;;;4917859;29;21778;-62
2023/12/28 06:06:15;;;;;;;3.10;2.90;;;8.80;99.90;;;;;;4911040;29;20187;-62
2023/12/28 06:08:41;;;;;;;5.03;1.40;;;8.80;99.90;;;;;;4907904;29;20975;-62
2023/12/28 06:11:06;;;;;;;1.73;1.50;;;8.80;99.90;;;;;;4906455;29;20675;-62
2023/12/28 06:13:32;;;;;;;3.63;1.60;;;8.70;99.90;;;;;;4924355;29;20261;-62
2023/12/28 06:15:57;;;;;;;1.60;1.47;;;8.80;99.90;;;;;;4916028;29;20215;-61
2023/12/28 06:18:23;;;;;;;4.73;2.77;;;8.90;99.90;;;;;;4908244;29;20255;-62
2023/12/28 06:20:48;;;;;;;1.63;1.53;;;8.80;99.90;;;;;;4913446;29;20183;-61
2023/12/28 06:23:14;;;;;;;2.17;1.60;;;8.80;99.90;;;;;;4909935;29;20643;-61
2023/12/28 06:25:40;;;;;;;4.87;1.73;;;8.80;99.90;;;;;;4906810;29;20187;-62
2023/12/28 06:28:06;;;;;;;1.97;1.70;;;8.80;99.90;;;;;;4914156;29;20674;-62
2023/12/28 06:30:31;;;;;;;1.77;1.50;;;8.80;99.90;;;;;;4904987;29;20478;-62
2023/12/28 06:32:57;;;;;;;2.00;1.87;;;8.70;99.90;;;;;;4906542;29;20213;-62
2023/12/28 06:35:22;;;;;;;1.80;1.50;;;8.70;99.90;;;;;;4907438;29;20187;-62
2023/12/28 06:37:48;;;;;;;2.83;1.40;;;8.70;99.90;;;;;;4902116;29;20678;-62
2023/12/28 06:40:14;;;;;;;1.30;1.20;;;8.70;99.90;;;;;;4916839;29;20198;-62
2023/12/28 06:42:41;;;;;;;1.80;1.70;;;8.70;99.90;;;;;;4917434;29;20493;-62
2023/12/28 06:45:06;;;;;;;1.70;1.60;;;8.70;99.90;;;;;;4917618;29;20527;-62
2023/12/28 06:47:32;;;;;;;3.47;1.97;;;8.70;99.90;;;;;;4915045;29;20513;-62
2023/12/28 06:49:58;;;;;;;2.23;1.80;;;8.80;99.90;;;;;;4911948;29;20211;-62
2023/12/28 06:52:23;;;;;;;4.27;2.30;;;8.80;99.90;;;;;;4909678;29;20293;-62
2023/12/28 06:54:51;;;;;;;2.20;2.00;;;8.80;99.90;;;;;;4911241;29;20172;-62
2023/12/28 06:57:17;;;;;;;1.40;1.20;;;8.80;99.90;;;;;;4913436;29;20183;-62
2023/12/28 06:59:42;;;;;;;2.37;1.73;;;8.80;99.90;;;;;;4917371;29;20525;-62
2023/12/28 07:02:08;;;;;;;2.00;1.80;;;8.80;99.90;;;;;;4916036;29;20551;-63
2023/12/28 07:04:33;;;;;;;2.33;1.63;;;8.70;99.90;;;;;;4907561;29;20186;-63
2023/12/28 07:06:59;;;;;;;2.33;1.70;;;8.70;99.90;;;;;;4907649;29;20552;-62
2023/12/28 07:09:25;;;;;;;2.03;1.60;;;8.80;99.90;;;;;;4916825;29;20222;-62
2023/12/28 07:11:50;;;;;;;2.50;1.53;;;8.80;99.90;;;;;;4917279;29;20183;-63
2023/12/28 07:14:16;;;;;;;1.97;1.40;;;8.80;99.90;;;;;;4917656;29;20187;-62
2023/12/28 07:16:41;;;;;;;2.77;1.70;;;8.70;99.90;;;;;;4912484;29;20209;-62
2023/12/28 07:19:07;;;;;;;3.27;2.37;;;8.80;99.90;;;;;;4906050;29;20276;-62
2023/12/28 07:21:32;;;;;;;2.57;1.70;;;8.70;99.90;;;;;;4907654;29;20191;-62
2023/12/28 07:23:58;;;;;;;1.70;1.60;;;8.60;99.90;;;;;;4907590;29;20188;-62
2023/12/28 07:26:24;;;;;;;1.50;1.40;;;8.70;99.90;;;;;;4912996;29;20171;-61
2023/12/28 07:28:49;;;;;;;3.43;2.10;;;8.70;99.90;;;;;;4916757;29;20207;-62
2023/12/28 07:31:26;;;;;;;2.00;1.80;;;8.80;99.90;;;;;;4924700;29;20236;-62
2023/12/28 07:33:52;;;;;;;2.13;1.40;;;8.80;99.90;;;;;;4916729;29;20278;-62
2023/12/28 07:36:17;;;;;;;3.13;1.57;;;8.80;99.90;;;;;;4909490;29;20744;-63
2023/12/28 07:38:44;;;;;;;6.23;1.93;;;8.70;99.90;;;;;;4907796;29;20251;-62
2023/12/28 07:41:09;;;;;;;3.10;1.50;;;8.80;99.90;;;;;;4912780;29;20178;-66
2023/12/28 07:43:36;;;;;;;2.60;2.40;;;8.80;99.90;;;;;;4910383;29;20770;-62
2023/12/28 07:46:02;;;;;;;6.87;3.00;;;8.80;99.90;;;;;;4914243;29;20563;-63
2023/12/28 07:48:30;;;;;;;1.83;1.67;;;8.70;99.90;;;;;;4916662;29;20416;-61
2023/12/28 07:50:56;;;;;;;1.57;1.40;;;8.80;99.90;;;;;;4916141;29;20565;-61
2023/12/28 07:53:22;;;;;;;2.53;2.00;;;8.80;99.90;;;;;;4916262;29;20486;-61
2023/12/28 07:55:48;;;;;;;4.93;2.03;;;8.70;99.90;;;;;;4913462;29;20461;-61
2023/12/28 07:58:14;;;;;;;2.50;1.70;;;8.70;99.90;;;;;;4908960;29;20432;-61
2023/12/28 08:00:40;;;;;;;1.47;1.37;;;8.70;99.90;;;;;;4907852;29;20178;-62
2023/12/28 08:03:05;;;;;;;2.90;1.70;;;8.70;99.90;;;;;;4918346;29;20432;-61
2023/12/28 08:05:31;;;;;;;2.60;2.07;;;8.70;99.90;;;;;;4911336;29;20193;-60
2023/12/28 08:07:56;;;;;;;2.40;1.83;;;8.80;99.90;;;;;;4916117;29;20654;-61
2023/12/28 08:10:22;;;;;;;3.00;1.70;;;8.80;99.90;;;;;;4916702;29;20207;-63
2023/12/28 08:12:47;;;;;;;3.40;1.70;;;8.90;99.90;;;;;;4915613;29;20260;-62
2023/12/28 08:15:13;;;;;;;1.70;1.60;;;8.90;99.90;;;;;;4918813;29;20175;-63
2023/12/28 08:17:38;;;;;;;2.93;1.60;;;8.90;99.90;;;;;;4914053;29;20231;-62
2023/12/28 08:20:06;;;;;;;3.37;1.80;;;8.90;99.90;;;;;;4909745;29;20214;-62
2023/12/28 08:22:32;;;;;;;2.17;1.93;;;8.90;99.90;;;;;;4916256;29;20262;-62
2023/12/28 08:24:57;;;;;;;1.90;1.60;;;9.00;99.90;;;;;;4921924;29;20585;-62
2023/12/28 08:27:23;;;;;;;6.00;2.13;;;9.00;99.90;;;;;;4914337;29;20297;-62
2023/12/28 08:29:49;;;;;;;3.53;2.20;;;9.00;99.90;;;;;;4918069;29;20753;-62
2023/12/28 08:32:15;;;;;;;3.10;1.93;;;9.00;99.90;;;;;;4912861;29;21021;-62
2023/12/28 08:34:40;;;;;;;2.13;1.90;;;9.10;99.90;;;;;;4913435;29;20194;-62
2023/12/28 08:37:06;;;;;;;2.47;2.00;;;9.00;99.90;;;;;;4919497;29;20551;-62
2023/12/28 08:39:32;;;;;;;4.10;2.37;;;9.00;99.90;;;;;;4908082;29;20291;-62
2023/12/28 08:41:58;;;;;;;4.43;2.23;;;9.00;99.90;;;;;;4910349;29;20522;-65
2023/12/28 08:44:23;;;;;;;2.50;2.23;;;9.00;99.90;;;;;;4910912;29;20229;-62
2023/12/28 08:46:49;;;;;;;2.27;1.80;;;9.00;99.90;;;;;;4903401;29;20792;-62
2023/12/28 08:49:15;;;;;;;2.67;1.90;;;9.10;99.90;;;;;;4908981;29;20191;-62
2023/12/28 08:51:42;;;;;;;3.50;2.27;;;9.00;99.90;;;;;;4915448;29;20656;-62
2023/12/28 08:54:08;;;;;;;2.43;1.73;;;9.00;99.90;;;;;;4907934;29;20498;-62
2023/12/28 08:56:34;;;;;;;2.10;1.53;;;9.10;99.90;;;;;;4915774;29;20439;-62
2023/12/28 08:59:00;;;;;;;3.30;2.00;;;9.10;99.90;;;;;;4911962;29;20455;-62
2023/12/28 09:01:25;;;;;;;3.77;1.80;;;9.10;99.90;;;;;;4909043;29;20230;-62
2023/12/28 09:03:52;;;;;;;2.83;1.67;;;9.10;99.90;;;;;;4910916;29;20251;-62
2023/12/28 09:06:20;;;;;;;2.50;2.03;;;9.10;99.90;;;;;;4910218;29;20235;-62
2023/12/28 09:08:47;;;;;;;2.97;1.97;;;9.20;99.90;;;;;;4912573;29;20763;-62
2023/12/28 09:11:13;;;;;;;2.10;1.63;;;9.20;99.90;;;;;;4915557;29;20485;-62
2023/12/28 09:13:41;;;;;;;2.93;1.80;;;9.20;99.90;;;;;;4903665;29;20468;-62
2023/12/28 09:16:08;;;;;;;2.60;2.07;;;9.20;99.90;;;;;;4910462;29;20439;-63
2023/12/28 09:18:34;;;;;;;2.03;1.83;;;9.20;99.90;;;;;;4919726;29;20515;-62
2023/12/28 09:20:59;;;;;;;3.23;2.20;;;9.20;99.90;;;;;;4907331;29;20454;-61
2023/12/28 09:23:25;;;;;;;2.40;1.70;;;9.20;99.90;;;;;;4920127;29;20199;-62
2023/12/28 09:25:50;;;;;;;2.23;2.00;;;9.20;99.90;;;;;;4907585;29;20187;-62
2023/12/28 09:28:16;;;;;;;2.93;1.67;;;9.30;99.90;;;;;;4907260;29;20652;-61
2023/12/28 09:30:42;;;;;;;2.03;1.83;;;9.30;99.90;;;;;;4912144;29;20248;-61
2023/12/28 09:33:07;;;;;;;3.97;2.23;;;9.30;99.90;;;;;;4916203;29;20207;-62
2023/12/28 09:35:33;;;;;;;4.10;2.60;;;9.30;99.90;;;;;;4925923;29;20253;-62
2023/12/28 09:37:59;;;;;;;2.80;2.13;;;9.20;99.90;;;;;;4915965;29;20277;-61
2023/12/28 09:40:25;;;;;;;2.63;2.43;;;9.20;99.90;;;;;;4921717;29;20438;-61
2023/12/28 09:43:21;;;;;;;1.97;1.87;;;9.20;99.90;;;;;;4905253;29;20185;-62
2023/12/28 09:45:48;;;;;;;2.50;1.97;;;9.20;99.90;;;;;;4915217;29;20483;-62
2023/12/28 09:48:18;;;;;;;2.83;1.83;;;9.20;99.90;;;;;;4915519;29;20475;-62
2023/12/28 09:50:51;;;;;;;2.27;2.07;;;9.20;99.90;;;;;;4912289;29;20427;-62
2023/12/28 09:53:16;;;;;;;3.10;2.30;;;9.10;99.90;;;;;;4922790;29;20910;-62
2023/12/28 09:55:43;;;;;;;3.50;2.20;;;9.10;99.90;;;;;;4914966;29;20515;-62
2023/12/28 09:58:13;;;;;;;3.63;2.30;;;9.10;99.90;;;;;;4902164;29;20187;-62
2023/12/28 10:00:39;;;;;;;2.40;2.20;;;9.10;99.90;;;;;;4907900;29;20472;-62
2023/12/28 10:03:04;;;;;;;2.27;1.77;;;9.00;99.90;;;;;;4907026;29;20843;-62
2023/12/28 10:05:30;;;;;;;3.80;2.23;;;9.00;99.90;;;;;;4912050;29;20432;-62
2023/12/28 10:07:57;;;;;;;3.50;2.40;;;9.10;99.90;;;;;;4916191;29;20203;-62
2023/12/28 10:10:22;;;;;;;3.50;2.20;;;9.10;99.90;;;;;;4909556;29;20204;-62
2023/12/28 10:12:48;;;;;;;5.20;2.30;;;9.00;99.90;;;;;;4913896;29;20482;-62
2023/12/28 10:15:14;;;;;;;2.27;2.07;;;9.00;99.90;;;;;;4911772;29;20175;-62
2023/12/28 10:17:39;;;;;;;3.47;2.47;;;9.10;99.90;;;;;;4924190;29;20186;-62
2023/12/28 10:20:09;;;;;;;2.17;1.70;;;9.10;99.90;;;;;;4918508;29;20203;-62
2023/12/28 10:22:36;;;;;;;2.93;2.60;;;9.10;99.90;;;;;;4920472;29;20259;-61
2023/12/28 10:25:05;;;;;;;3.90;3.20;;;9.10;99.90;;;;;;4920083;29;20937;-62
2023/12/28 10:27:30;;;;;;;2.50;2.13;;;9.10;99.90;;;;;;4922377;29;20926;-61
2023/12/28 10:29:56;;;;;;;2.10;1.90;;;9.10;99.90;;;;;;4914972;29;20467;-61
2023/12/28 10:32:25;;;;;;;3.90;1.73;;;9.20;99.90;;;;;;4915520;29;20706;-64
2023/12/28 10:34:54;;;;;;;2.60;2.40;;;9.30;99.90;;;;;;4923723;29;20205;-62
2023/12/28 10:37:20;;;;;;;3.50;2.37;;;9.40;99.90;;;;;;4913010;29;20930;-62
2023/12/28 10:39:49;;;;;;;5.93;4.33;;;9.30;99.90;;;;;;4920189;29;20791;-63
2023/12/28 10:42:26;;;;;;;3.53;2.00;;;9.40;99.90;;;;;;4906657;29;20923;-64
2023/12/28 10:44:55;;;;;;;2.80;2.30;;;9.40;99.90;;;;;;4920223;29;20419;-67
2023/12/28 10:47:25;;;;;;;24.73;14.47;;;9.40;99.90;;;;;;4903259;29;20439;-64
2023/12/28 10:49:55;;;;;;;3.23;2.17;;;9.40;99.90;;;;;;4915638;29;20808;-65
2023/12/28 10:52:24;;;;;;;2.83;1.83;;;9.50;99.90;;;;;;4913369;29;20546;-66
2023/12/28 10:55:09;;;;;;;3.13;1.90;;;9.50;99.90;;;;;;4912820;29;20423;-64
2023/12/28 10:57:55;;;;;;;3.17;2.17;;;9.60;99.90;;;;;;4917389;29;20428;-67
2023/12/28 11:00:24;;;;;;;3.30;2.10;;;9.60;99.90;;;;;;4913882;29;20455;-66
2023/12/28 11:02:53;;;;;;;2.10;1.80;;;9.70;99.90;;;;;;4912717;29;20790;-63
2023/12/28 11:05:21;;;;;;;1.67;1.57;;;9.70;99.90;;;;;;4918911;29;20426;-61
2023/12/28 11:07:49;;;;;;;2.30;2.10;;;9.70;99.90;;;;;;4916626;29;20860;-62
2023/12/28 11:10:17;;;;;;;3.60;2.23;;;9.70;99.90;;;;;;4907637;29;20443;-61
2023/12/28 11:12:43;;;;;;;2.87;2.40;;;9.70;99.90;;;;;;4918329;29;20946;-62
2023/12/28 11:15:11;;;;;;;3.17;2.00;;;9.80;99.90;;;;;;4912727;29;20468;-62
2023/12/28 11:17:37;;;;;;;1.97;1.50;;;9.90;99.90;;;;;;4917476;29;20919;-61
2023/12/28 11:20:05;;;;;;;2.23;2.03;;;10.10;99.90;;;;;;4917465;29;20842;-62
2023/12/28 11:22:31;;;;;;;3.10;2.10;;;10.10;99.90;;;;;;4917666;29;20438;-62
2023/12/28 11:24:57;;;;;;;4.70;2.63;;;10.20;99.90;;;;;;4917678;29;20503;-62
2023/12/28 11:27:23;;;;;;;2.70;2.00;;;10.30;99.90;;;;;;4917671;29;20567;-62
2023/12/28 11:29:49;;;;;;;2.80;2.10;;;10.40;99.90;;;;;;4911820;29;20211;-62
2023/12/28 11:32:14;;;;;;;4.00;2.17;;;10.40;99.90;;;;;;4911535;29;20439;-62
2023/12/28 11:34:40;;;;;;;3.47;2.53;;;10.40;99.90;;;;;;4911706;29;20471;-62
2023/12/28 11:37:18;;;;;;;3.20;1.80;;;10.50;99.90;;;;;;4907415;29;20179;-62
2023/12/28 11:39:44;;;;;;;2.37;2.17;;;10.50;99.90;;;;;;4913400;29;20316;-62
2023/12/28 11:42:10;;;;;;;2.40;1.83;;;10.50;99.90;;;;;;4912983;29;20443;-62
2023/12/28 11:44:44;;;;;;;1.67;1.57;;;10.50;99.90;;;;;;4915058;29;20560;-61
2023/12/28 11:47:20;;;;;;;3.73;1.90;;;10.60;99.90;;;;;;4916426;29;20431;-61
2023/12/28 11:49:47;;;;;;;3.10;1.87;;;10.60;99.90;;;;;;4912283;29;20564;-61
2023/12/28 11:52:26;;;;;;;2.03;1.63;;;10.60;99.90;;;;;;4912006;29;20474;-61
2023/12/28 11:54:52;;;;;;;1.77;1.43;;;10.50;99.90;;;;;;4916537;29;20423;-62
2023/12/28 11:57:19;;;;;;;3.33;2.50;;;10.60;99.90;;;;;;4905459;29;20519;-59
2023/12/28 11:59:45;;;;;;;2.00;1.50;;;10.60;99.90;;;;;;4906132;29;20456;-61
2023/12/28 12:02:11;;;;;;;2.47;2.27;;;10.60;99.90;;;;;;4918046;29;20793;-60
2023/12/28 12:04:36;;;;;;;3.70;2.10;;;10.60;99.90;;;;;;4917124;29;20187;-61
2023/12/28 12:07:06;;;;;;;2.63;1.80;;;10.60;99.90;;;;;;4916706;29;20262;-61
2023/12/28 12:09:34;;;;;;;2.00;1.77;;;10.60;99.90;;;;;;4921850;29;20227;-61
2023/12/28 12:12:07;;;;;;;2.60;1.90;;;10.60;99.90;;;;;;4914625;29;20424;-61
2023/12/28 12:14:37;;;;;;;6.17;2.20;;;10.60;99.90;;;;;;4906291;29;20455;-60
2023/12/28 12:17:06;;;;;;;6.40;1.93;;;10.60;99.90;;;;;;4914399;29;20434;-61
2023/12/28 12:19:40;;;;;;;2.53;2.20;;;10.60;99.90;;;;;;4915592;29;20459;-64
2023/12/28 12:22:06;;;;;;;1.73;1.63;;;10.70;99.90;;;;;;4916226;29;20454;-61
2023/12/28 12:24:36;;;;;;;5.70;1.70;;;10.60;99.90;;;;;;4915987;29;20479;-63
2023/12/28 12:27:04;;;;;;;3.70;1.73;;;10.60;99.90;;;;;;4915872;29;20416;-63
2023/12/28 12:29:32;;;;;;;5.53;2.87;;;10.60;99.90;;;;;;4916013;29;20455;-63
2023/12/28 12:32:03;;;;;;;3.13;2.10;;;10.60;99.90;;;;;;4915631;29;20498;-62
2023/12/28 12:34:29;;;;;;;4.17;2.60;;;10.60;99.90;;;;;;4912644;29;20446;-62
2023/12/28 12:37:03;;;;;;;2.53;2.10;;;10.60;99.90;;;;;;4915345;29;20445;-62
2023/12/28 12:39:36;;;;;;;2.37;1.90;;;10.60;99.90;;;;;;4913424;29;20438;-62
2023/12/28 12:42:05;;;;;;;3.00;2.17;;;10.60;99.90;;;;;;4915727;29;20914;-62
2023/12/28 12:44:33;;;;;;;2.10;1.80;;;10.60;99.90;;;;;;4909840;29;20447;-62
2023/12/28 12:46:59;;;;;;;2.60;2.10;;;10.60;99.90;;;;;;4911861;29;20411;-61
2023/12/28 12:49:26;;;;;;;4.23;1.83;;;10.70;99.90;;;;;;4914401;29;20461;-62
2023/12/28 12:52:00;;;;;;;3.00;1.60;;;10.60;99.90;;;;;;4914808;29;20939;-62